sensor_id;sensor_type;location;lat;lon;timestamp;pressure;altitude;pressure_sealevel;temperature;humidity
51289;BME280;37372;52.294;5.152;2023-04-06T00:01:36;101836.94;;;2.85;64.38
51289;BME280;37372;52.294;5.152;2023-04-06T00:04:02;101841.50;;;2.85;64.28
51289;BME280;37372;52.294;5.152;2023-04-06T00:06:33;101826.09;;;2.85;63.55
51289;BME280;37372;52.294;5.152;2023-04-06T00:09:05;101829.25;;;2.81;63.61
51289;BME280;37372;52.294;5.152;2023-04-06T00:11:34;101824.00;;;2.79;63.59
51289;BME280;37372;52.294;5.152;2023-04-06T00:13:59;101822.16;;;2.80;64.02
51289;BME280;37372;52.294;5.152;2023-04-06T00:16:25;101822.44;;;2.77;64.15
51289;BME280;37372;52.294;5.152;2023-04-06T00:19:03;101828.09;;;2.83;63.63
51289;BME280;37372;52.294;5.152;2023-04-06T00:21:28;101824.69;;;2.81;63.65
51289;BME280;37372;52.294;5.152;2023-04-06T00:23:57;101820.50;;;2.87;63.48
51289;BME280;37372;52.294;5.152;2023-04-06T00:26:29;101814.41;;;2.85;63.04
51289;BME280;37372;52.294;5.152;2023-04-06T00:28:57;101810.13;;;2.82;63.08
51289;BME280;37372;52.294;5.152;2023-04-06T00:31:42;101815.25;;;2.85;62.93
51289;BME280;37372;52.294;5.152;2023-04-06T00:34:08;101810.28;;;2.81;63.16
51289;BME280;37372;52.294;5.152;2023-04-06T00:36:33;101813.56;;;2.84;62.63
51289;BME280;37372;52.294;5.152;2023-04-06T00:39:04;101806.75;;;2.80;63.30
51289;BME280;37372;52.294;5.152;2023-04-06T00:41:30;101798.16;;;2.85;62.77
51289;BME280;37372;52.294;5.152;2023-04-06T00:44:07;101799.69;;;2.87;61.99
51289;BME280;37372;52.294;5.152;2023-04-06T00:46:35;101790.41;;;2.90;62.60
51289;BME280;37372;52.294;5.152;2023-04-06T00:49:04;101790.06;;;2.93;62.10
51289;BME280;37372;52.294;5.152;2023-04-06T00:51:29;101781.78;;;2.94;62.23
51289;BME280;37372;52.294;5.152;2023-04-06T00:53:55;101784.19;;;2.97;61.97
51289;BME280;37372;52.294;5.152;2023-04-06T00:56:21;101778.44;;;3.01;62.11
51289;BME280;37372;52.294;5.152;2023-04-06T00:58:51;101776.28;;;3.04;61.61
51289;BME280;37372;52.294;5.152;2023-04-06T01:01:20;101776.09;;;3.06;61.28
51289;BME280;37372;52.294;5.152;2023-04-06T01:03:49;101768.34;;;3.11;61.61
51289;BME280;37372;52.294;5.152;2023-04-06T01:06:21;101764.47;;;3.13;60.77
51289;BME280;37372;52.294;5.152;2023-04-06T01:08:47;101760.72;;;3.14;60.29
51289;BME280;37372;52.294;5.152;2023-04-06T01:11:13;101760.44;;;3.17;60.94
51289;BME280;37372;52.294;5.152;2023-04-06T01:13:39;101754.16;;;3.17;60.61
51289;BME280;37372;52.294;5.152;2023-04-06T01:16:34;101750.44;;;3.18;60.16
51289;BME280;37372;52.294;5.152;2023-04-06T01:19:21;101745.69;;;3.20;60.33
51289;BME280;37372;52.294;5.152;2023-04-06T01:21:47;101742.69;;;3.23;59.35
51289;BME280;37372;52.294;5.152;2023-04-06T01:24:14;101740.31;;;3.28;59.29
51289;BME280;37372;52.294;5.152;2023-04-06T01:26:40;101742.19;;;3.28;59.88
51289;BME280;37372;52.294;5.152;2023-04-06T01:29:21;101746.75;;;3.27;59.36
51289;BME280;37372;52.294;5.152;2023-04-06T01:31:50;101739.47;;;3.28;59.25
51289;BME280;37372;52.294;5.152;2023-04-06T01:34:25;101740.31;;;3.28;59.30
51289;BME280;37372;52.294;5.152;2023-04-06T01:36:51;101735.97;;;3.35;59.81
51289;BME280;37372;52.294;5.152;2023-04-06T01:39:18;101737.66;;;3.36;59.71
51289;BME280;37372;52.294;5.152;2023-04-06T01:41:44;101730.22;;;3.38;59.67
51289;BME280;37372;52.294;5.152;2023-04-06T01:47:00;101730.22;;;3.46;58.88
51289;BME280;37372;52.294;5.152;2023-04-06T01:49:25;101729.22;;;3.47;59.06
51289;BME280;37372;52.294;5.152;2023-04-06T01:51:53;101716.53;;;3.48;58.89
51289;BME280;37372;52.294;5.152;2023-04-06T01:54:20;101710.09;;;3.49;59.05
51289;BME280;37372;52.294;5.152;2023-04-06T01:56:48;101711.97;;;3.48;58.80
51289;BME280;37372;52.294;5.152;2023-04-06T01:59:17;101716.88;;;3.53;58.91
51289;BME280;37372;52.294;5.152;2023-04-06T02:01:42;101711.13;;;3.56;58.45
51289;BME280;37372;52.294;5.152;2023-04-06T02:04:15;101714.88;;;3.55;58.39
51289;BME280;37372;52.294;5.152;2023-04-06T02:06:41;101706.91;;;3.62;58.10
51289;BME280;37372;52.294;5.152;2023-04-06T02:09:19;101702.81;;;3.58;57.38
51289;BME280;37372;52.294;5.152;2023-04-06T02:11:45;101699.25;;;3.57;57.65
51289;BME280;37372;52.294;5.152;2023-04-06T02:14:11;101693.00;;;3.57;57.65
51289;BME280;37372;52.294;5.152;2023-04-06T02:16:37;101693.66;;;3.59;57.77
51289;BME280;37372;52.294;5.152;2023-04-06T02:19:05;101687.94;;;3.62;57.41
51289;BME280;37372;52.294;5.152;2023-04-06T02:21:34;101689.63;;;3.63;57.75
51289;BME280;37372;52.294;5.152;2023-04-06T02:23:59;101684.19;;;3.63;57.28
51289;BME280;37372;52.294;5.152;2023-04-06T02:26:28;101683.19;;;3.64;58.03
51289;BME280;37372;52.294;5.152;2023-04-06T02:29:04;101672.50;;;3.62;57.14
51289;BME280;37372;52.294;5.152;2023-04-06T02:31:32;101680.47;;;3.64;56.70
51289;BME280;37372;52.294;5.152;2023-04-06T02:34:02;101677.56;;;3.65;56.15
51289;BME280;37372;52.294;5.152;2023-04-06T02:36:35;101677.25;;;3.68;56.54
51289;BME280;37372;52.294;5.152;2023-04-06T02:39:10;101677.75;;;3.72;56.10
51289;BME280;37372;52.294;5.152;2023-04-06T02:41:35;101670.47;;;3.72;56.53
51289;BME280;37372;52.294;5.152;2023-04-06T02:44:07;101671.31;;;3.73;55.99
51289;BME280;37372;52.294;5.152;2023-04-06T02:46:33;101658.09;;;3.78;55.50
51289;BME280;37372;52.294;5.152;2023-04-06T02:49:04;101663.53;;;3.78;55.84
51289;BME280;37372;52.294;5.152;2023-04-06T02:51:30;101656.41;;;3.77;55.99
51289;BME280;37372;52.294;5.152;2023-04-06T02:54:05;101649.13;;;3.77;56.01
51289;BME280;37372;52.294;5.152;2023-04-06T02:56:30;101645.38;;;3.78;55.24
51289;BME280;37372;52.294;5.152;2023-04-06T02:58:57;101640.13;;;3.77;55.83
51289;BME280;37372;52.294;5.152;2023-04-06T03:01:24;101639.13;;;3.78;55.52
51289;BME280;37372;52.294;5.152;2023-04-06T03:03:50;101645.91;;;3.74;55.34
51289;BME280;37372;52.294;5.152;2023-04-06T03:06:25;101637.59;;;3.75;55.76
51289;BME280;37372;52.294;5.152;2023-04-06T03:09:11;101640.97;;;3.77;55.74
51289;BME280;37372;52.294;5.152;2023-04-06T03:11:37;101637.59;;;3.75;55.67
51289;BME280;37372;52.294;5.152;2023-04-06T03:14:14;101634.69;;;3.77;56.31
51289;BME280;37372;52.294;5.152;2023-04-06T03:16:40;101638.94;;;3.79;55.47
51289;BME280;37372;52.294;5.152;2023-04-06T03:19:12;101632.84;;;3.77;55.91
51289;BME280;37372;52.294;5.152;2023-04-06T03:21:41;101632.00;;;3.77;55.80
51289;BME280;37372;52.294;5.152;2023-04-06T03:24:26;101628.59;;;3.75;56.20
51289;BME280;37372;52.294;5.152;2023-04-06T03:26:55;101626.03;;;3.73;55.98
51289;BME280;37372;52.294;5.152;2023-04-06T03:29:24;101628.59;;;3.75;55.52
51289;BME280;37372;52.294;5.152;2023-04-06T03:31:50;101624.03;;;3.75;56.21
51289;BME280;37372;52.294;5.152;2023-04-06T03:34:19;101613.34;;;3.74;55.60
51289;BME280;37372;52.294;5.152;2023-04-06T03:36:48;101617.75;;;3.75;56.03
51289;BME280;37372;52.294;5.152;2023-04-06T03:39:37;101611.63;;;3.73;55.56
51289;BME280;37372;52.294;5.152;2023-04-06T03:42:06;101601.47;;;3.75;55.88
51289;BME280;37372;52.294;5.152;2023-04-06T03:44:38;101598.59;;;3.76;56.17
51289;BME280;37372;52.294;5.152;2023-04-06T03:47:10;101603.16;;;3.76;56.17
51289;BME280;37372;52.294;5.152;2023-04-06T03:49:54;101599.78;;;3.74;56.38
51289;BME280;37372;52.294;5.152;2023-04-06T03:52:21;101599.78;;;3.74;56.32
51289;BME280;37372;52.294;5.152;2023-04-06T03:54:48;101596.38;;;3.72;56.76
51289;BME280;37372;52.294;5.152;2023-04-06T03:57:13;101597.91;;;3.74;56.84
51289;BME280;37372;52.294;5.152;2023-04-06T03:59:39;101598.41;;;3.70;56.40
51289;BME280;37372;52.294;5.152;2023-04-06T04:02:05;101602.31;;;3.67;56.41
51289;BME280;37372;52.294;5.152;2023-04-06T04:04:30;101606.88;;;3.67;57.24
51289;BME280;37372;52.294;5.152;2023-04-06T04:06:59;101597.88;;;3.66;57.44
51289;BME280;37372;52.294;5.152;2023-04-06T04:09:45;101602.81;;;3.63;57.57
51289;BME280;37372;52.294;5.152;2023-04-06T04:12:10;101597.38;;;3.63;57.74
51289;BME280;37372;52.294;5.152;2023-04-06T04:17:24;101605.34;;;3.64;57.70
51289;BME280;37372;52.294;5.152;2023-04-06T04:19:53;101592.44;;;3.66;57.58
51289;BME280;37372;52.294;5.152;2023-04-06T04:22:18;101595.16;;;3.66;57.47
51289;BME280;37372;52.294;5.152;2023-04-06T04:24:44;101595.69;;;3.70;57.07
51289;BME280;37372;52.294;5.152;2023-04-06T04:27:10;101597.91;;;3.74;57.80
51289;BME280;37372;52.294;5.152;2023-04-06T04:29:35;101597.38;;;3.71;57.83
51289;BME280;37372;52.294;5.152;2023-04-06T04:32:09;101590.94;;;3.72;58.47
51289;BME280;37372;52.294;5.152;2023-04-06T04:34:53;101592.81;;;3.71;58.12
51289;BME280;37372;52.294;5.152;2023-04-06T04:37:35;101586.69;;;3.77;58.32
51289;BME280;37372;52.294;5.152;2023-04-06T04:40:13;101585.00;;;3.76;58.40
51289;BME280;37372;52.294;5.152;2023-04-06T04:42:40;101585.69;;;3.78;57.78
51289;BME280;37372;52.294;5.152;2023-04-06T04:45:08;101584.84;;;3.78;58.48
51289;BME280;37372;52.294;5.152;2023-04-06T04:47:44;101588.25;;;3.80;58.29
51289;BME280;37372;52.294;5.152;2023-04-06T04:50:19;101584.84;;;3.78;58.49
51289;BME280;37372;52.294;5.152;2023-04-06T04:52:44;101583.50;;;3.82;57.76
51289;BME280;37372;52.294;5.152;2023-04-06T04:55:22;101577.72;;;3.85;58.34
51289;BME280;37372;52.294;5.152;2023-04-06T04:57:50;101583.50;;;3.90;58.23
51289;BME280;37372;52.294;5.152;2023-04-06T05:00:18;101578.72;;;3.92;57.96
51289;BME280;37372;52.294;5.152;2023-04-06T05:02:45;101578.59;;;3.94;57.94
51289;BME280;37372;52.294;5.152;2023-04-06T05:05:10;101578.22;;;3.97;58.04
51289;BME280;37372;52.294;5.152;2023-04-06T05:07:35;101571.13;;;3.96;57.71
51289;BME280;37372;52.294;5.152;2023-04-06T05:10:10;101568.41;;;3.96;58.08
51289;BME280;37372;52.294;5.152;2023-04-06T05:12:42;101566.53;;;4.04;58.22
51289;BME280;37372;52.294;5.152;2023-04-06T05:15:10;101576.22;;;4.07;57.57
51289;BME280;37372;52.294;5.152;2023-04-06T05:17:42;101571.25;;;4.11;57.59
51289;BME280;37372;52.294;5.152;2023-04-06T05:20:11;101576.88;;;4.17;57.85
51289;BME280;37372;52.294;5.152;2023-04-06T05:22:36;101569.75;;;4.16;57.55
51289;BME280;37372;52.294;5.152;2023-04-06T05:25:23;101562.59;;;4.23;57.07
51289;BME280;37372;52.294;5.152;2023-04-06T05:27:58;101562.41;;;4.25;57.02
51289;BME280;37372;52.294;5.152;2023-04-06T05:30:30;101575.84;;;4.26;57.10
51289;BME280;37372;52.294;5.152;2023-04-06T05:32:55;101564.28;;;4.24;57.29
51289;BME280;37372;52.294;5.152;2023-04-06T05:35:25;101566.00;;;4.33;56.40
51289;BME280;37372;52.294;5.152;2023-04-06T05:37:53;101567.69;;;4.34;57.42
51289;BME280;37372;52.294;5.152;2023-04-06T05:40:43;101570.41;;;4.34;56.74
51289;BME280;37372;52.294;5.152;2023-04-06T05:43:24;101567.00;;;4.41;57.32
51289;BME280;37372;52.294;5.152;2023-04-06T05:45:49;101568.50;;;4.43;57.03
51289;BME280;37372;52.294;5.152;2023-04-06T05:48:17;101565.78;;;4.43;57.29
51289;BME280;37372;52.294;5.152;2023-04-06T05:50:50;101562.94;;;4.45;56.66
51289;BME280;37372;52.294;5.152;2023-04-06T05:53:25;101566.97;;;4.49;56.89
51289;BME280;37372;52.294;5.152;2023-04-06T05:56:06;101571.22;;;4.51;57.03
51289;BME280;37372;52.294;5.152;2023-04-06T05:58:37;101571.53;;;4.56;57.21
51289;BME280;37372;52.294;5.152;2023-04-06T06:01:02;101568.47;;;4.59;56.36
51289;BME280;37372;52.294;5.152;2023-04-06T06:03:34;101575.25;;;4.63;56.68
51289;BME280;37372;52.294;5.152;2023-04-06T06:06:06;101573.88;;;4.68;56.46
51289;BME280;37372;52.294;5.152;2023-04-06T06:08:34;101574.88;;;4.75;55.97
51289;BME280;37372;52.294;5.152;2023-04-06T06:10:59;101575.03;;;4.81;56.27
51289;BME280;37372;52.294;5.152;2023-04-06T06:13:25;101573.66;;;4.85;56.28
51289;BME280;37372;52.294;5.152;2023-04-06T06:15:50;101566.69;;;4.91;56.21
51289;BME280;37372;52.294;5.152;2023-04-06T06:18:22;101573.59;;;5.02;56.61
51289;BME280;37372;52.294;5.152;2023-04-06T06:20:48;101565.28;;;5.03;56.24
51289;BME280;37372;52.294;5.152;2023-04-06T06:23:13;101566.72;;;5.14;55.68
51289;BME280;37372;52.294;5.152;2023-04-06T06:25:39;101561.75;;;5.26;56.04
51289;BME280;37372;52.294;5.152;2023-04-06T06:28:04;101565.75;;;5.38;55.50
51289;BME280;37372;52.294;5.152;2023-04-06T06:30:35;101552.91;;;5.55;54.46
51289;BME280;37372;52.294;5.152;2023-04-06T06:33:04;101553.59;;;5.80;54.10
51289;BME280;37372;52.294;5.152;2023-04-06T06:35:30;101559.63;;;5.67;54.23
51289;BME280;37372;52.294;5.152;2023-04-06T06:37:55;101559.06;;;5.71;54.10
51289;BME280;37372;52.294;5.152;2023-04-06T06:40:21;101569.34;;;5.84;54.32
51289;BME280;37372;52.294;5.152;2023-04-06T06:42:49;101563.06;;;5.84;54.58
51289;BME280;37372;52.294;5.152;2023-04-06T06:45:19;101567.31;;;5.86;53.96
51289;BME280;37372;52.294;5.152;2023-04-06T06:47:46;101562.47;;;5.96;53.42
51289;BME280;37372;52.294;5.152;2023-04-06T06:50:12;101556.88;;;5.90;53.95
51289;BME280;37372;52.294;5.152;2023-04-06T06:52:37;101560.16;;;5.85;54.83
51289;BME280;37372;52.294;5.152;2023-04-06T06:55:03;101558.13;;;5.87;53.96
51289;BME280;37372;52.294;5.152;2023-04-06T06:57:29;101553.31;;;5.89;54.74
51289;BME280;37372;52.294;5.152;2023-04-06T06:59:54;101557.91;;;5.89;54.71
51289;BME280;37372;52.294;5.152;2023-04-06T07:02:20;101556.03;;;5.89;54.86
51289;BME280;37372;52.294;5.152;2023-04-06T07:04:52;101557.63;;;5.84;54.97
51289;BME280;37372;52.294;5.152;2023-04-06T07:07:20;101550.84;;;5.80;55.84
51289;BME280;37372;52.294;5.152;2023-04-06T07:09:47;101547.44;;;5.78;55.59
51289;BME280;37372;52.294;5.152;2023-04-06T07:12:16;101543.66;;;5.87;55.70
51289;BME280;37372;52.294;5.152;2023-04-06T07:14:51;101554.16;;;5.90;56.36
51289;BME280;37372;52.294;5.152;2023-04-06T07:17:37;101541.72;;;5.95;55.57
51289;BME280;37372;52.294;5.152;2023-04-06T07:20:03;101535.34;;;6.03;55.61
51289;BME280;37372;52.294;5.152;2023-04-06T07:22:29;101536.00;;;6.05;55.64
51289;BME280;37372;52.294;5.152;2023-04-06T07:24:56;101540.06;;;6.09;55.71
51289;BME280;37372;52.294;5.152;2023-04-06T07:27:21;101539.03;;;6.10;56.03
51289;BME280;37372;52.294;5.152;2023-04-06T07:29:51;101539.13;;;6.17;55.72
51289;BME280;37372;52.294;5.152;2023-04-06T07:32:19;101539.09;;;6.25;55.65
51289;BME280;37372;52.294;5.152;2023-04-06T07:34:56;101543.09;;;6.29;56.42
51289;BME280;37372;52.294;5.152;2023-04-06T07:37:23;101538.06;;;6.41;55.38
51289;BME280;37372;52.294;5.152;2023-04-06T07:40:02;101538.25;;;6.54;55.26
51289;BME280;37372;52.294;5.152;2023-04-06T07:42:34;101534.22;;;6.65;55.01
51289;BME280;37372;52.294;5.152;2023-04-06T07:45:00;101532.69;;;6.62;54.83
51289;BME280;37372;52.294;5.152;2023-04-06T07:47:26;101533.16;;;6.81;55.61
51289;BME280;37372;52.294;5.152;2023-04-06T07:50:05;101531.38;;;6.88;55.76
51289;BME280;37372;52.294;5.152;2023-04-06T07:52:34;101536.66;;;6.89;55.22
51289;BME280;37372;52.294;5.152;2023-04-06T07:55:03;101529.28;;;7.04;54.89
51289;BME280;37372;52.294;5.152;2023-04-06T07:57:29;101533.13;;;7.10;54.61
51289;BME280;37372;52.294;5.152;2023-04-06T08:00:04;101534.44;;;7.14;54.85
51289;BME280;37372;52.294;5.152;2023-04-06T08:02:37;101535.81;;;7.25;54.96
51289;BME280;37372;52.294;5.152;2023-04-06T08:05:05;101530.00;;;7.28;54.15
51289;BME280;37372;52.294;5.152;2023-04-06T08:07:34;101533.31;;;7.45;54.26
51289;BME280;37372;52.294;5.152;2023-04-06T08:10:22;101535.97;;;7.38;54.62
51289;BME280;37372;52.294;5.152;2023-04-06T08:13:00;101532.53;;;7.51;55.33
51289;BME280;37372;52.294;5.152;2023-04-06T08:18:28;101534.63;;;7.70;54.71
51289;BME280;37372;52.294;5.152;2023-04-06T08:20:58;101535.41;;;7.85;53.87
51289;BME280;37372;52.294;5.152;2023-04-06T08:23:24;101539.91;;;7.72;53.86
51289;BME280;37372;52.294;5.152;2023-04-06T08:25:49;101531.13;;;7.76;54.67
51289;BME280;37372;52.294;5.152;2023-04-06T08:28:18;101530.47;;;7.74;54.78
51289;BME280;37372;52.294;5.152;2023-04-06T08:30:43;101535.78;;;8.04;54.45
51289;BME280;37372;52.294;5.152;2023-04-06T08:33:09;101534.28;;;8.01;54.02
51289;BME280;37372;52.294;5.152;2023-04-06T08:35:35;101528.16;;;8.21;53.58
51289;BME280;37372;52.294;5.152;2023-04-06T08:38:00;101528.72;;;8.37;53.91
51289;BME280;37372;52.294;5.152;2023-04-06T08:40:27;101524.41;;;8.56;53.59
51289;BME280;37372;52.294;5.152;2023-04-06T08:42:55;101520.75;;;8.71;52.81
51289;BME280;37372;52.294;5.152;2023-04-06T08:45:27;101515.75;;;8.87;53.01
51289;BME280;37372;52.294;5.152;2023-04-06T08:47:54;101511.66;;;9.11;52.79
51289;BME280;37372;52.294;5.152;2023-04-06T08:50:20;101523.78;;;8.89;53.92
51289;BME280;37372;52.294;5.152;2023-04-06T08:52:49;101511.84;;;9.03;53.54
51289;BME280;37372;52.294;5.152;2023-04-06T08:55:24;101515.28;;;9.25;52.85
51289;BME280;37372;52.294;5.152;2023-04-06T08:57:50;101513.63;;;9.37;53.20
51289;BME280;37372;52.294;5.152;2023-04-06T09:00:20;101512.50;;;9.12;54.50
51289;BME280;37372;52.294;5.152;2023-04-06T09:02:49;101510.88;;;9.37;53.23
51289;BME280;37372;52.294;5.152;2023-04-06T09:05:26;101518.50;;;9.48;53.45
51289;BME280;37372;52.294;5.152;2023-04-06T09:07:52;101521.25;;;9.48;53.64
51289;BME280;37372;52.294;5.152;2023-04-06T09:10:18;101516.81;;;9.47;54.39
51289;BME280;37372;52.294;5.152;2023-04-06T09:12:51;101523.53;;;9.38;55.13
51289;BME280;37372;52.294;5.152;2023-04-06T09:15:24;101525.38;;;9.25;55.23
51289;BME280;37372;52.294;5.152;2023-04-06T09:17:49;101525.63;;;9.30;55.15
51289;BME280;37372;52.294;5.152;2023-04-06T09:20:24;101526.50;;;9.43;55.37
51289;BME280;37372;52.294;5.152;2023-04-06T09:23:06;101536.38;;;9.38;56.27
51289;BME280;37372;52.294;5.152;2023-04-06T09:26:04;101513.41;;;9.39;57.31
51289;BME280;37372;52.294;5.152;2023-04-06T09:28:57;101522.97;;;9.63;55.90
51289;BME280;37372;52.294;5.152;2023-04-06T09:31:28;101532.41;;;9.47;57.70
51289;BME280;37372;52.294;5.152;2023-04-06T09:33:59;101530.31;;;9.49;57.09
51289;BME280;37372;52.294;5.152;2023-04-06T09:36:38;101537.00;;;9.33;57.98
51289;BME280;37372;52.294;5.152;2023-04-06T09:39:06;101525.03;;;9.41;57.91
51289;BME280;37372;52.294;5.152;2023-04-06T09:41:35;101539.06;;;9.25;59.88
51289;BME280;37372;52.294;5.152;2023-04-06T09:44:14;101534.75;;;8.95;59.68
51289;BME280;37372;52.294;5.152;2023-04-06T09:46:50;101542.34;;;9.00;61.77
51289;BME280;37372;52.294;5.152;2023-04-06T09:49:18;101535.69;;;9.16;61.99
51289;BME280;37372;52.294;5.152;2023-04-06T09:51:54;101535.78;;;8.94;63.23
51289;BME280;37372;52.294;5.152;2023-04-06T09:57:21;101540.50;;;8.73;65.45
51289;BME280;37372;52.294;5.152;2023-04-06T10:02:38;101531.66;;;9.12;64.15
51289;BME280;37372;52.294;5.152;2023-04-06T10:08:05;101546.94;;;8.93;65.12
51289;BME280;37372;52.294;5.152;2023-04-06T10:13:33;101528.50;;;9.08;64.97
51289;BME280;37372;52.294;5.152;2023-04-06T10:16:34;101526.69;;;9.29;63.96
51289;BME280;37372;52.294;5.152;2023-04-06T10:19:13;101537.19;;;9.25;64.25
51289;BME280;37372;52.294;5.152;2023-04-06T10:21:54;101536.38;;;9.38;62.48
51289;BME280;37372;52.294;5.152;2023-04-06T10:24:39;101539.97;;;9.38;63.28
51289;BME280;37372;52.294;5.152;2023-04-06T10:27:12;101534.59;;;9.10;64.51
51289;BME280;37372;52.294;5.152;2023-04-06T10:30:14;101535.28;;;8.78;65.83
51289;BME280;37372;52.294;5.152;2023-04-06T10:39:05;101520.84;;;8.90;67.66
51289;BME280;37372;52.294;5.152;2023-04-06T10:41:49;101517.03;;;8.91;68.94
51289;BME280;37372;52.294;5.152;2023-04-06T10:45:05;101514.84;;;9.15;69.72
51289;BME280;37372;52.294;5.152;2023-04-06T10:47:24;101523.13;;;8.87;69.55
51289;BME280;37372;52.294;5.152;2023-04-06T10:53:25;101513.72;;;8.96;69.10
51289;BME280;37372;52.294;5.152;2023-04-06T10:55:54;101510.47;;;8.79;70.68
51289;BME280;37372;52.294;5.152;2023-04-06T10:58:46;101502.44;;;8.71;70.74
51289;BME280;37372;52.294;5.152;2023-04-06T11:01:15;101501.31;;;8.59;70.00
51289;BME280;37372;52.294;5.152;2023-04-06T11:03:43;101497.97;;;8.63;72.50
51289;BME280;37372;52.294;5.152;2023-04-06T11:06:09;101500.88;;;8.62;71.61
51289;BME280;37372;52.294;5.152;2023-04-06T11:08:37;101505.97;;;8.65;72.59
51289;BME280;37372;52.294;5.152;2023-04-06T11:11:38;101491.69;;;8.70;73.48
51289;BME280;37372;52.294;5.152;2023-04-06T11:14:10;101489.56;;;8.65;73.71
51289;BME280;37372;52.294;5.152;2023-04-06T11:16:42;101488.44;;;8.53;74.01
51289;BME280;37372;52.294;5.152;2023-04-06T11:19:07;101483.88;;;8.66;72.95
51289;BME280;37372;52.294;5.152;2023-04-06T11:21:40;101482.75;;;8.54;74.87
51289;BME280;37372;52.294;5.152;2023-04-06T11:24:21;101485.38;;;8.76;74.37
51289;BME280;37372;52.294;5.152;2023-04-06T11:26:50;101481.19;;;8.73;73.37
51289;BME280;37372;52.294;5.152;2023-04-06T11:29:18;101478.41;;;8.66;75.16
51289;BME280;37372;52.294;5.152;2023-04-06T11:31:52;101474.34;;;8.56;75.63
51289;BME280;37372;52.294;5.152;2023-04-06T11:34:27;101485.47;;;8.89;74.48
51289;BME280;37372;52.294;5.152;2023-04-06T11:37:00;101478.78;;;9.05;75.00
51289;BME280;37372;52.294;5.152;2023-04-06T11:39:54;101468.72;;;9.18;74.26
51289;BME280;37372;52.294;5.152;2023-04-06T11:42:23;101463.03;;;9.20;74.07
51289;BME280;37372;52.294;5.152;2023-04-06T11:45:06;101458.88;;;9.50;73.36
51289;BME280;37372;52.294;5.152;2023-04-06T11:48:27;101457.78;;;9.18;73.34
51289;BME280;37372;52.294;5.152;2023-04-06T11:50:35;101457.56;;;9.20;73.89
51289;BME280;37372;52.294;5.152;2023-04-06T11:53:17;101461.69;;;8.89;73.88
51289;BME280;37372;52.294;5.152;2023-04-06T11:55:51;101453.53;;;9.09;73.92
51289;BME280;37372;52.294;5.152;2023-04-06T11:58:17;101456.66;;;9.00;75.72
51289;BME280;37372;52.294;5.152;2023-04-06T12:01:05;101450.91;;;8.81;75.39
51289;BME280;37372;52.294;5.152;2023-04-06T12:03:30;101458.97;;;8.89;76.07
51289;BME280;37372;52.294;5.152;2023-04-06T12:06:05;101461.00;;;8.81;75.98
51289;BME280;37372;52.294;5.152;2023-04-06T12:08:30;101453.25;;;8.84;75.10
51289;BME280;37372;52.294;5.152;2023-04-06T12:11:05;101448.88;;;8.97;75.14
51289;BME280;37372;52.294;5.152;2023-04-06T12:13:54;101449.28;;;8.93;74.77
51289;BME280;37372;52.294;5.152;2023-04-06T12:16:23;101448.56;;;8.72;75.82
51289;BME280;37372;52.294;5.152;2023-04-06T12:18:48;101454.63;;;8.67;76.38
51289;BME280;37372;52.294;5.152;2023-04-06T12:21:30;101446.91;;;8.77;75.95
51289;BME280;37372;52.294;5.152;2023-04-06T12:24:14;101448.13;;;8.75;76.08
51289;BME280;37372;52.294;5.152;2023-04-06T12:26:51;101447.47;;;8.59;77.89
51289;BME280;37372;52.294;5.152;2023-04-06T12:29:24;101448.81;;;8.42;77.07
51289;BME280;37372;52.294;5.152;2023-04-06T12:31:50;101449.78;;;8.28;78.49
51289;BME280;37372;52.294;5.152;2023-04-06T12:34:39;101447.22;;;8.20;79.71
51289;BME280;37372;52.294;5.152;2023-04-06T12:37:05;101439.47;;;8.30;78.80
51289;BME280;37372;52.294;5.152;2023-04-06T12:39:41;101438.88;;;8.34;79.67
51289;BME280;37372;52.294;5.152;2023-04-06T12:42:21;101436.25;;;8.48;79.50
51289;BME280;37372;52.294;5.152;2023-04-06T12:44:50;101436.47;;;8.18;80.78
51289;BME280;37372;52.294;5.152;2023-04-06T12:47:18;101438.25;;;8.32;79.97
51289;BME280;37372;52.294;5.152;2023-04-06T12:49:43;101429.78;;;8.27;80.16
51289;BME280;37372;52.294;5.152;2023-04-06T12:52:25;101434.22;;;8.28;80.55
51289;BME280;37372;52.294;5.152;2023-04-06T12:54:52;101428.78;;;8.35;80.36
51289;BME280;37372;52.294;5.152;2023-04-06T12:57:17;101424.88;;;8.16;80.96
51289;BME280;37372;52.294;5.152;2023-04-06T12:59:50;101427.75;;;8.01;81.92
51289;BME280;37372;52.294;5.152;2023-04-06T13:02:20;101424.88;;;8.16;81.58
51289;BME280;37372;52.294;5.152;2023-04-06T13:04:59;101425.59;;;8.25;81.65
51289;BME280;37372;52.294;5.152;2023-04-06T13:07:25;101413.75;;;8.18;81.00
51289;BME280;37372;52.294;5.152;2023-04-06T13:09:51;101420.34;;;8.30;81.36
51289;BME280;37372;52.294;5.152;2023-04-06T13:12:21;101419.47;;;8.23;80.67
51289;BME280;37372;52.294;5.152;2023-04-06T13:14:50;101414.13;;;8.08;81.25
51289;BME280;37372;52.294;5.152;2023-04-06T13:17:32;101410.13;;;8.10;82.07
51289;BME280;37372;52.294;5.152;2023-04-06T13:20:14;101406.72;;;8.02;81.92
51289;BME280;37372;52.294;5.152;2023-04-06T13:22:43;101403.22;;;8.14;81.29
51289;BME280;37372;52.294;5.152;2023-04-06T13:25:08;101408.66;;;8.08;82.57
51289;BME280;37372;52.294;5.152;2023-04-06T13:27:33;101397.56;;;8.16;82.10
51289;BME280;37372;52.294;5.152;2023-04-06T13:30:04;101394.63;;;8.18;82.32
51289;BME280;37372;52.294;5.152;2023-04-06T13:32:33;101395.44;;;8.11;82.46
51289;BME280;37372;52.294;5.152;2023-04-06T13:35:25;101400.28;;;7.81;82.61
51289;BME280;37372;52.294;5.152;2023-04-06T13:38:03;101395.41;;;7.77;82.88
51289;BME280;37372;52.294;5.152;2023-04-06T13:40:28;101396.63;;;7.68;84.09
51289;BME280;37372;52.294;5.152;2023-04-06T13:42:54;101396.25;;;7.77;84.02
51289;BME280;37372;52.294;5.152;2023-04-06T13:45:23;101392.00;;;7.68;83.58
51289;BME280;37372;52.294;5.152;2023-04-06T13:47:49;101389.25;;;7.68;82.95
51289;BME280;37372;52.294;5.152;2023-04-06T13:50:21;101388.47;;;7.74;84.08
51289;BME280;37372;52.294;5.152;2023-04-06T13:53:10;101384.44;;;7.70;83.80